Friday, October 19, 2018, 7:28 AM EDT
Back to Local

KFVE, Northern Aroostook Regional

Location: Saint Agatha, ME, United States Lat: 47.283
Local Time: 7:28 AM EDT (11:28 GMT) Lon: -68.3
Time Zone: US/Eastern Elev: 987 ft

Show me the last for .
Show Decoded

2018-10-19 06:53 METAR KFVE 191053Z AUTO 26005KT 10SM FEW120 M04/M09 A3001 RMK AO2 SLP175
                 T10441094 =
2018-10-19 05:53 METAR KFVE 190953Z AUTO 25005KT 10SM BKN110 M04/M09 A3002 RMK AO2 SLP175
                 T10441094 =
2018-10-19 04:53 METAR KFVE 190853Z AUTO 26006KT 10SM CLR M04/M10 A3001 RMK AO2 SLP174 T10441100
                 53002 =
2018-10-19 03:53 METAR KFVE 190753Z AUTO 29008KT 10SM CLR M04/M10 A3000 RMK AO2 SLP171 T10441100
                 =
2018-10-19 02:53 METAR KFVE 190653Z AUTO 29008KT 10SM CLR M04/M10 A3001 RMK AO2 SLP171 T10391100
                 =
2018-10-19 01:53 METAR KFVE 190553Z AUTO 29010KT 10SM CLR M03/M10 A3001 RMK AO2 SLP171 T10331100
                 11006 21033 58001 =
2018-10-19 00:53 METAR KFVE 190453Z AUTO 30010KT 10SM CLR M03/M10 A3001 RMK AO2 SLP171 T10281100
                 400391028 =
2018-10-18 23:53 METAR KFVE 190353Z AUTO 30013G22KT 10SM CLR M02/M11 A3001 RMK AO2 SLP173
                 T10221106 =
2018-10-18 22:53 METAR KFVE 190253Z AUTO 31012G19KT 10SM CLR M02/M11 A3001 RMK AO2 SLP172
                 T10171106 51010 =
2018-10-18 21:53 METAR KFVE 190153Z AUTO 31013G23KT 10SM CLR M01/M11 A3001 RMK AO2 PK WND
                 29026/0139 SLP171 T10111106 =
2018-10-18 20:53 METAR KFVE 190053Z AUTO 29012G20KT 10SM CLR M01/M10 A3000 RMK AO2 PK WND
                 29026/2355 SLP168 T10111100 =
2018-10-18 19:53 METAR KFVE 182353Z AUTO 30014G21KT 10SM CLR M01/M09 A2998 RMK AO2 SLP162 60000
                 T10061094 10033 21011 51024 =
2018-10-18 18:53 METAR KFVE 182253Z AUTO 31013G23KT 10SM CLR M01/M09 A2996 RMK AO2 PK WND
                 29028/2231 SLP156 T10061094 =
2018-10-18 17:53 METAR KFVE 182153Z AUTO 30017G23KT 10SM SCT048 01/M10 A2994 RMK AO2 PK WND
                 33031/2103 SLP147 T00061100 =
2018-10-18 16:53 METAR KFVE 182053Z AUTO 31011G27KT 10SM SCT050 01/M11 A2991 RMK AO2 PK WND
                 31031/1955 SLP137 60000 T00111106 53027 =
2018-10-18 15:53 METAR KFVE 181953Z AUTO 30016G24KT 10SM FEW050 BKN065 02/M09 A2987 RMK AO2 PK
                 WND 29035/1920 SNB04E32 SLP125 P0000 T00171094 =
2018-10-18 14:53 METAR KFVE 181853Z AUTO 30020G26KT 10SM OVC055 03/M09 A2985 RMK AO2 PK WND
                 29036/1809 SNB11E36 SLP115 P0000 T00281089 =
2018-10-18 13:53 METAR KFVE 181753Z AUTO 31019G33KT 10SM FEW047 BKN060 03/M08 A2983 RMK AO2 PK
                 WND 30039/1700 SNE40 SLP109 P0000 60000 T00281078 10039 21006 51014 =
2018-10-18 12:53 METAR KFVE 181653Z AUTO 30024G34KT 10SM -SN BKN042 BKN050 OVC060 03/M07 A2981
                 RMK AO2 PK WND 30039/1638 SNE25B53 SLP104 P0000 T00281067 =
2018-10-18 11:53 METAR KFVE 181553Z AUTO 30027G40KT 9SM -SN BKN043 OVC050 02/M08 A2981 RMK AO2 PK
                 WND 32040/1550 SLP100 P0000 T00221078 =
2018-10-18 10:53 METAR KFVE 181453Z AUTO 30024G32KT 9SM -SN OVC038 02/M07 A2978 RMK AO2 PK WND
                 31037/1420 SLP093 P0000 60000 T00171072 51020 =
2018-10-18 10:09 METAR KFVE 181409Z AUTO 31023G32KT 3SM -SN BKN032 OVC045 01/M07 A2977 RMK AO2 PK
                 WND 30035/1354 P0000 T00061067 =
2018-10-18 10:05 METAR KFVE 181405Z AUTO 32023G32KT 2 1/2SM -SN BKN029 BKN038 OVC045 01/M06 A2977
                 RMK AO2 PK WND 30035/1354 P0000 T00061061 =
2018-10-18 09:53 METAR KFVE 181353Z AUTO 31019G30KT 9SM -SN BKN035 OVC046 01/M06 A2977 RMK AO2 PK
                 WND 30037/1336 SLP088 P0000 T00061061 =
2018-10-18 09:44 METAR KFVE 181344Z AUTO 31021G37KT 9SM -SN FEW025 SCT030 OVC043 01/M06 A2976 RMK
                 AO2 PK WND 30037/1336 P0000 T00061061 =
2018-10-18 09:23 METAR KFVE 181323Z AUTO 31022G35KT 9SM -SN FEW023 BKN029 OVC038 01/M06 A2976 RMK
                 AO2 PK WND 29035/1321 P0000 T00061056 =
2018-10-18 08:53 METAR KFVE 181253Z AUTO 31016G31KT 9SM -SN BKN032 BKN039 OVC050 00/M06 A2975 RMK
                 AO2 PK WND 28033/1237 SNE12B43 SLP083 P0000 T00001061 =
2018-10-18 08:22 METAR KFVE 181222Z AUTO 30020G32KT 10SM FEW019 BKN030 OVC047 00/M05 A2974 RMK
                 AO2 PK WND 31032/1218 SNE12 P0000 T00001050 =
2018-10-18 08:00 METAR KFVE 181200Z AUTO 30018G24KT 6SM -SN FEW008 BKN022 OVC027 M01/M04 A2972
                 RMK AO2 P0000 T10061044 =
2018-10-18 07:53 METAR KFVE 181153Z AUTO 30016G24KT 2SM -SN FEW010 BKN016 OVC025 M01/M04 A2972
                 RMK AO2 PK WND 28028/1118 SLP073 P0000 60000 70019 T10061039 10000 21011 53019 =
2018-10-18 07:44 METAR KFVE 181144Z AUTO 30016G24KT 1 1/2SM -SN FEW008 BKN014 OVC021 M01/M04
                 A2972 RMK AO2 PK WND 28028/1118 P0000 T10061039 =
2018-10-18 07:41 METAR KFVE 181141Z AUTO 30015G24KT 3/4SM -SN FEW008 BKN014 OVC021 M01/M04 A2972
                 RMK AO2 PK WND 28028/1118 P0000 T10061039 =
2018-10-18 07:33 METAR KFVE 181133Z AUTO 29015G28KT 1/4SM +SN VV008 M01/M04 A2971 RMK AO2 PK WND
                 28028/1118 P0000 T10061039 =

Support USWX by starting your Amazon purchase here.